sensor_id;sensor_type;location;lat;lon;timestamp;pressure;altitude;pressure_sealevel;temperature;humidity
74905;BME280;63465;50.862;6.220;2023-04-01T00:01:27;97748.88;;;8.98;100.00
74905;BME280;63465;50.862;6.220;2023-04-01T00:03:53;97748.88;;;8.98;100.00
74905;BME280;63465;50.862;6.220;2023-04-01T00:06:21;97747.69;;;9.02;99.38
74905;BME280;63465;50.862;6.220;2023-04-01T00:08:48;97741.19;;;9.06;99.28
74905;BME280;63465;50.862;6.220;2023-04-01T00:11:16;97739.41;;;9.07;98.88
74905;BME280;63465;50.862;6.220;2023-04-01T00:13:43;97738.31;;;9.09;98.86
74905;BME280;63465;50.862;6.220;2023-04-01T00:16:12;97734.63;;;9.12;98.91
74905;BME280;63465;50.862;6.220;2023-04-01T00:18:39;97740.72;;;9.13;98.39
74905;BME280;63465;50.862;6.220;2023-04-01T00:21:06;97745.06;;;9.14;97.79
74905;BME280;63465;50.862;6.220;2023-04-01T00:23:33;97737.25;;;9.12;98.49
74905;BME280;63465;50.862;6.220;2023-04-01T00:26:00;97739.91;;;9.12;98.65
74905;BME280;63465;50.862;6.220;2023-04-01T00:28:28;97736.53;;;9.10;98.34
74905;BME280;63465;50.862;6.220;2023-04-01T00:30:55;97750.72;;;9.09;98.53
74905;BME280;63465;50.862;6.220;2023-04-01T00:33:23;97747.34;;;9.07;99.07
74905;BME280;63465;50.862;6.220;2023-04-01T00:35:50;97746.59;;;9.05;99.48
74905;BME280;63465;50.862;6.220;2023-04-01T00:38:17;97743.13;;;9.04;99.46
74905;BME280;63465;50.862;6.220;2023-04-01T00:40:46;97743.94;;;9.05;98.91
74905;BME280;63465;50.862;6.220;2023-04-01T00:43:14;97752.13;;;9.02;99.54
74905;BME280;63465;50.862;6.220;2023-04-01T00:45:44;97739.88;;;9.01;99.24
74905;BME280;63465;50.862;6.220;2023-04-01T00:48:13;97746.00;;;9.01;99.58
74905;BME280;63465;50.862;6.220;2023-04-01T00:50:44;97740.81;;;9.00;99.14
74905;BME280;63465;50.862;6.220;2023-04-01T00:53:12;97747.81;;;9.01;99.77
74905;BME280;63465;50.862;6.220;2023-04-01T00:55:43;97754.75;;;9.02;99.05
74905;BME280;63465;50.862;6.220;2023-04-01T00:58:15;97744.81;;;9.05;98.71
74905;BME280;63465;50.862;6.220;2023-04-01T01:00:44;97741.53;;;9.02;99.21
74905;BME280;63465;50.862;6.220;2023-04-01T01:03:11;97746.09;;;9.00;99.26
74905;BME280;63465;50.862;6.220;2023-04-01T01:05:55;97736.00;;;9.05;98.21
74905;BME280;63465;50.862;6.220;2023-04-01T01:08:37;97736.00;;;9.05;98.81
74905;BME280;63465;50.862;6.220;2023-04-01T01:11:10;97739.75;;;9.02;98.88
74905;BME280;63465;50.862;6.220;2023-04-01T01:13:43;97747.47;;;9.05;98.62
74905;BME280;63465;50.862;6.220;2023-04-01T01:16:18;97742.28;;;9.04;98.50
74905;BME280;63465;50.862;6.220;2023-04-01T01:18:50;97748.41;;;9.04;98.10
74905;BME280;63465;50.862;6.220;2023-04-01T01:21:45;97726.41;;;9.04;98.97
74905;BME280;63465;50.862;6.220;2023-04-01T01:24:46;97737.22;;;9.01;99.06
74905;BME280;63465;50.862;6.220;2023-04-01T01:27:17;97731.38;;;9.08;98.69
74905;BME280;63465;50.862;6.220;2023-04-01T01:30:15;97725.31;;;9.06;97.88
74905;BME280;63465;50.862;6.220;2023-04-01T01:33:01;97730.13;;;9.01;98.61
74905;BME280;63465;50.862;6.220;2023-04-01T01:35:36;97729.16;;;9.02;98.36
74905;BME280;63465;50.862;6.220;2023-04-01T01:38:14;97729.78;;;9.06;97.81
74905;BME280;63465;50.862;6.220;2023-04-01T01:40:52;97729.31;;;9.12;96.52
74905;BME280;63465;50.862;6.220;2023-04-01T01:43:24;97734.63;;;9.12;96.73
74905;BME280;63465;50.862;6.220;2023-04-01T01:45:54;97743.38;;;9.13;96.34
74905;BME280;63465;50.862;6.220;2023-04-01T01:48:23;97732.69;;;9.14;96.42
74905;BME280;63465;50.862;6.220;2023-04-01T01:50:52;97734.63;;;9.12;95.59
74905;BME280;63465;50.862;6.220;2023-04-01T01:53:20;97731.84;;;9.14;95.15
74905;BME280;63465;50.862;6.220;2023-04-01T01:55:47;97730.78;;;9.16;95.09
74905;BME280;63465;50.862;6.220;2023-04-01T01:58:18;97723.06;;;9.13;95.16
74905;BME280;63465;50.862;6.220;2023-04-01T02:00:49;97737.03;;;9.15;94.34
74905;BME280;63465;50.862;6.220;2023-04-01T02:03:17;97718.03;;;9.10;93.88
74905;BME280;63465;50.862;6.220;2023-04-01T02:05:47;97728.94;;;9.05;93.84
74905;BME280;63465;50.862;6.220;2023-04-01T02:08:21;97726.41;;;9.04;93.89
74905;BME280;63465;50.862;6.220;2023-04-01T02:10:55;97732.66;;;9.03;94.29
74905;BME280;63465;50.862;6.220;2023-04-01T02:13:27;97733.25;;;9.06;94.74
74905;BME280;63465;50.862;6.220;2023-04-01T02:15:59;97727.00;;;9.07;94.05
74905;BME280;63465;50.862;6.220;2023-04-01T02:18:29;97743.00;;;9.06;94.74
74905;BME280;63465;50.862;6.220;2023-04-01T02:20:57;97755.28;;;9.07;94.89
74905;BME280;63465;50.862;6.220;2023-04-01T02:23:27;97732.31;;;9.07;94.71
74905;BME280;63465;50.862;6.220;2023-04-01T02:25:54;97740.25;;;9.07;95.07
74905;BME280;63465;50.862;6.220;2023-04-01T02:28:22;97729.88;;;9.04;95.73
74905;BME280;63465;50.862;6.220;2023-04-01T02:30:51;97730.47;;;8.97;97.10
74905;BME280;63465;50.862;6.220;2023-04-01T02:33:19;97738.41;;;8.97;97.05
74905;BME280;63465;50.862;6.220;2023-04-01T02:35:46;97744.97;;;8.91;98.36
74905;BME280;63465;50.862;6.220;2023-04-01T02:38:13;97733.22;;;8.95;97.86
74905;BME280;63465;50.862;6.220;2023-04-01T02:40:46;97745.88;;;9.03;96.89
74905;BME280;63465;50.862;6.220;2023-04-01T02:43:13;97746.22;;;8.98;97.78
74905;BME280;63465;50.862;6.220;2023-04-01T02:45:40;97730.91;;;8.90;98.31
74905;BME280;63465;50.862;6.220;2023-04-01T02:48:07;97743.91;;;8.93;98.40
74905;BME280;63465;50.862;6.220;2023-04-01T02:50:33;97751.84;;;8.93;98.74
74905;BME280;63465;50.862;6.220;2023-04-01T02:53:01;97748.25;;;8.95;98.78
74905;BME280;63465;50.862;6.220;2023-04-01T02:55:29;97750.25;;;8.91;99.23
74905;BME280;63465;50.862;6.220;2023-04-01T02:57:57;97750.38;;;8.89;99.12
74905;BME280;63465;50.862;6.220;2023-04-01T03:00:24;97759.50;;;8.85;99.83
74905;BME280;63465;50.862;6.220;2023-04-01T03:02:51;97752.75;;;8.81;100.00
74905;BME280;63465;50.862;6.220;2023-04-01T03:05:18;97748.94;;;8.85;100.00
74905;BME280;63465;50.862;6.220;2023-04-01T03:07:45;97757.31;;;8.79;100.00
74905;BME280;63465;50.862;6.220;2023-04-01T03:10:13;97749.16;;;8.82;100.00
74905;BME280;63465;50.862;6.220;2023-04-01T03:12:40;97753.25;;;8.86;100.00
74905;BME280;63465;50.862;6.220;2023-04-01T03:15:09;97759.50;;;8.85;100.00
74905;BME280;63465;50.862;6.220;2023-04-01T03:17:36;97754.84;;;8.89;100.00
74905;BME280;63465;50.862;6.220;2023-04-01T03:20:03;97759.06;;;8.91;100.00
74905;BME280;63465;50.862;6.220;2023-04-01T03:22:30;97761.38;;;8.96;99.52
74905;BME280;63465;50.862;6.220;2023-04-01T03:24:57;97763.78;;;8.99;98.97
74905;BME280;63465;50.862;6.220;2023-04-01T03:27:24;97776.16;;;8.99;98.77
74905;BME280;63465;50.862;6.220;2023-04-01T03:29:51;97758.63;;;8.98;99.30
74905;BME280;63465;50.862;6.220;2023-04-01T03:32:19;97770.13;;;8.97;99.20
74905;BME280;63465;50.862;6.220;2023-04-01T03:34:46;97776.16;;;8.99;99.69
74905;BME280;63465;50.862;6.220;2023-04-01T03:37:13;97785.06;;;8.98;99.35
74905;BME280;63465;50.862;6.220;2023-04-01T03:39:41;97781.38;;;8.87;100.00
74905;BME280;63465;50.862;6.220;2023-04-01T03:42:07;97777.56;;;8.91;100.00
74905;BME280;63465;50.862;6.220;2023-04-01T03:44:34;97765.53;;;8.87;100.00
74905;BME280;63465;50.862;6.220;2023-04-01T03:47:01;97782.63;;;8.95;100.00
74905;BME280;63465;50.862;6.220;2023-04-01T03:49:29;97782.00;;;8.91;100.00
74905;BME280;63465;50.862;6.220;2023-04-01T03:51:57;97787.94;;;8.95;100.00
74905;BME280;63465;50.862;6.220;2023-04-01T03:54:24;97782.06;;;9.02;100.00
74905;BME280;63465;50.862;6.220;2023-04-01T03:56:51;97786.22;;;8.93;100.00
74905;BME280;63465;50.862;6.220;2023-04-01T03:59:17;97792.03;;;8.99;100.00
74905;BME280;63465;50.862;6.220;2023-04-01T04:01:46;97798.78;;;9.03;100.00
74905;BME280;63465;50.862;6.220;2023-04-01T04:04:13;97790.13;;;9.01;100.00
74905;BME280;63465;50.862;6.220;2023-04-01T04:06:42;97786.50;;;9.02;100.00
74905;BME280;63465;50.862;6.220;2023-04-01T04:09:08;97800.06;;;8.97;100.00
74905;BME280;63465;50.862;6.220;2023-04-01T04:11:35;97796.25;;;9.01;100.00
74905;BME280;63465;50.862;6.220;2023-04-01T04:14:02;97797.72;;;9.05;100.00
74905;BME280;63465;50.862;6.220;2023-04-01T04:16:29;97795.13;;;8.92;100.00
74905;BME280;63465;50.862;6.220;2023-04-01T04:18:58;97807.16;;;8.97;100.00
74905;BME280;63465;50.862;6.220;2023-04-01T04:21:25;97807.63;;;8.90;100.00
74905;BME280;63465;50.862;6.220;2023-04-01T04:23:53;97809.44;;;8.90;100.00
74905;BME280;63465;50.862;6.220;2023-04-01T04:26:20;97808.13;;;8.96;100.00
74905;BME280;63465;50.862;6.220;2023-04-01T04:28:59;97809.69;;;8.98;100.00
74905;BME280;63465;50.862;6.220;2023-04-01T04:31:27;97823.75;;;8.99;100.00
74905;BME280;63465;50.862;6.220;2023-04-01T04:33:58;97818.81;;;8.94;100.00
74905;BME280;63465;50.862;6.220;2023-04-01T04:36:25;97819.13;;;8.89;100.00
74905;BME280;63465;50.862;6.220;2023-04-01T04:38:53;97821.44;;;8.94;100.00
74905;BME280;63465;50.862;6.220;2023-04-01T04:41:20;97827.81;;;8.91;100.00
74905;BME280;63465;50.862;6.220;2023-04-01T04:43:50;97837.97;;;8.85;100.00
74905;BME280;63465;50.862;6.220;2023-04-01T04:46:18;97831.13;;;8.82;100.00
74905;BME280;63465;50.862;6.220;2023-04-01T04:48:47;97835.88;;;8.90;100.00
74905;BME280;63465;50.862;6.220;2023-04-01T04:51:15;97838.63;;;8.88;100.00
74905;BME280;63465;50.862;6.220;2023-04-01T04:53:43;97837.88;;;8.86;100.00
74905;BME280;63465;50.862;6.220;2023-04-01T04:56:11;97837.97;;;8.85;100.00
74905;BME280;63465;50.862;6.220;2023-04-01T04:58:47;97843.28;;;8.85;100.00
74905;BME280;63465;50.862;6.220;2023-04-01T05:01:18;97838.97;;;8.84;100.00
74905;BME280;63465;50.862;6.220;2023-04-01T05:03:46;97852.91;;;8.86;100.00
74905;BME280;63465;50.862;6.220;2023-04-01T05:06:14;97847.28;;;8.90;100.00
74905;BME280;63465;50.862;6.220;2023-04-01T05:08:42;97851.00;;;8.88;100.00
74905;BME280;63465;50.862;6.220;2023-04-01T05:11:13;97848.44;;;8.86;100.00
74905;BME280;63465;50.862;6.220;2023-04-01T05:13:42;97854.06;;;8.95;100.00
74905;BME280;63465;50.862;6.220;2023-04-01T05:16:09;97860.78;;;8.99;100.00
74905;BME280;63465;50.862;6.220;2023-04-01T05:18:37;97857.66;;;8.93;100.00
74905;BME280;63465;50.862;6.220;2023-04-01T05:21:07;97864.53;;;8.96;100.00
74905;BME280;63465;50.862;6.220;2023-04-01T05:23:34;97863.66;;;8.96;100.00
74905;BME280;63465;50.862;6.220;2023-04-01T05:26:03;97861.78;;;8.98;100.00
74905;BME280;63465;50.862;6.220;2023-04-01T05:28:33;97864.84;;;8.91;100.00
74905;BME280;63465;50.862;6.220;2023-04-01T05:31:00;97868.00;;;8.97;100.00
74905;BME280;63465;50.862;6.220;2023-04-01T05:33:33;97865.47;;;8.95;100.00
74905;BME280;63465;50.862;6.220;2023-04-01T05:36:06;97874.69;;;8.89;100.00
74905;BME280;63465;50.862;6.220;2023-04-01T05:38:33;97871.69;;;8.94;100.00
74905;BME280;63465;50.862;6.220;2023-04-01T05:40:59;97879.41;;;8.97;100.00
74905;BME280;63465;50.862;6.220;2023-04-01T05:43:27;97874.78;;;9.01;100.00
74905;BME280;63465;50.862;6.220;2023-04-01T05:45:58;97881.66;;;8.90;100.00
74905;BME280;63465;50.862;6.220;2023-04-01T05:48:34;97879.25;;;8.87;100.00
74905;BME280;63465;50.862;6.220;2023-04-01T05:51:01;97886.84;;;8.92;100.00
74905;BME280;63465;50.862;6.220;2023-04-01T05:53:28;97883.59;;;8.88;100.00
74905;BME280;63465;50.862;6.220;2023-04-01T05:55:55;97883.59;;;8.88;100.00
74905;BME280;63465;50.862;6.220;2023-04-01T05:58:21;97886.41;;;8.98;100.00
74905;BME280;63465;50.862;6.220;2023-04-01T06:00:48;97892.03;;;8.93;100.00
74905;BME280;63465;50.862;6.220;2023-04-01T06:03:17;97891.91;;;8.95;100.00
74905;BME280;63465;50.862;6.220;2023-04-01T06:05:44;97887.78;;;8.91;100.00
74905;BME280;63465;50.862;6.220;2023-04-01T06:08:12;97893.31;;;8.88;100.00
74905;BME280;63465;50.862;6.220;2023-04-01T06:10:52;97882.84;;;8.86;100.00
74905;BME280;63465;50.862;6.220;2023-04-01T06:13:29;97895.94;;;8.88;100.00
74905;BME280;63465;50.862;6.220;2023-04-01T06:16:06;97899.25;;;8.91;100.00
74905;BME280;63465;50.862;6.220;2023-04-01T06:19:04;97901.13;;;9.02;100.00
74905;BME280;63465;50.862;6.220;2023-04-01T06:21:53;97902.09;;;8.88;100.00
74905;BME280;63465;50.862;6.220;2023-04-01T06:24:50;97902.50;;;8.95;100.00
74905;BME280;63465;50.862;6.220;2023-04-01T06:27:36;97905.09;;;9.08;100.00
74905;BME280;63465;50.862;6.220;2023-04-01T06:30:21;97907.91;;;8.93;100.00
74905;BME280;63465;50.862;6.220;2023-04-01T06:33:09;97910.53;;;8.93;100.00
74905;BME280;63465;50.862;6.220;2023-04-01T06:35:58;97913.75;;;8.86;100.00
74905;BME280;63465;50.862;6.220;2023-04-01T06:38:41;97924.31;;;8.86;100.00
74905;BME280;63465;50.862;6.220;2023-04-01T06:41:38;97925.38;;;8.83;100.00
74905;BME280;63465;50.862;6.220;2023-04-01T06:44:16;97914.66;;;8.98;100.00
74905;BME280;63465;50.862;6.220;2023-04-01T06:47:24;97927.69;;;9.01;100.00
74905;BME280;63465;50.862;6.220;2023-04-01T06:50:23;97929.28;;;8.90;100.00
74905;BME280;63465;50.862;6.220;2023-04-01T06:53:32;97938.81;;;8.93;100.00
74905;BME280;63465;50.862;6.220;2023-04-01T06:56:24;97939.53;;;8.95;100.00
74905;BME280;63465;50.862;6.220;2023-04-01T06:59:20;97937.00;;;8.93;100.00
74905;BME280;63465;50.862;6.220;2023-04-01T07:01:51;97936.81;;;8.84;100.00
74905;BME280;63465;50.862;6.220;2023-04-01T07:04:22;97940.06;;;8.87;100.00
74905;BME280;63465;50.862;6.220;2023-04-01T07:06:52;97945.88;;;8.92;100.00
74905;BME280;63465;50.862;6.220;2023-04-01T07:09:25;97944.53;;;8.87;100.00
74905;BME280;63465;50.862;6.220;2023-04-01T07:12:33;97950.72;;;8.99;100.00
74905;BME280;63465;50.862;6.220;2023-04-01T07:15:24;97957.22;;;8.95;100.00
74905;BME280;63465;50.862;6.220;2023-04-01T07:17:55;97947.88;;;9.02;100.00
74905;BME280;63465;50.862;6.220;2023-04-01T07:20:25;97948.41;;;8.94;100.00
74905;BME280;63465;50.862;6.220;2023-04-01T07:22:56;97960.38;;;9.00;100.00
74905;BME280;63465;50.862;6.220;2023-04-01T07:25:33;97962.56;;;9.06;100.00
74905;BME280;63465;50.862;6.220;2023-04-01T07:28:22;97970.09;;;9.12;100.00
74905;BME280;63465;50.862;6.220;2023-04-01T07:31:07;97965.00;;;9.09;100.00
74905;BME280;63465;50.862;6.220;2023-04-01T07:33:43;97972.06;;;9.21;100.00
74905;BME280;63465;50.862;6.220;2023-04-01T07:36:16;97978.53;;;9.17;100.00
74905;BME280;63465;50.862;6.220;2023-04-01T07:38:55;97978.25;;;9.09;100.00
74905;BME280;63465;50.862;6.220;2023-04-01T07:41:51;97977.28;;;9.10;100.00
74905;BME280;63465;50.862;6.220;2023-04-01T07:44:25;97989.31;;;9.14;100.00
74905;BME280;63465;50.862;6.220;2023-04-01T07:47:19;97995.28;;;9.18;100.00
74905;BME280;63465;50.862;6.220;2023-04-01T07:50:01;98002.25;;;9.06;100.00
74905;BME280;63465;50.862;6.220;2023-04-01T07:52:36;98004.69;;;9.09;100.00
74905;BME280;63465;50.862;6.220;2023-04-01T07:55:16;98001.09;;;9.10;100.00
74905;BME280;63465;50.862;6.220;2023-04-01T07:57:53;98001.72;;;9.14;100.00
74905;BME280;63465;50.862;6.220;2023-04-01T08:00:24;98007.66;;;9.04;100.00
74905;BME280;63465;50.862;6.220;2023-04-01T08:03:14;98011.91;;;9.07;100.00
74905;BME280;63465;50.862;6.220;2023-04-01T08:05:50;98016.66;;;9.02;100.00
74905;BME280;63465;50.862;6.220;2023-04-01T08:08:30;98021.63;;;9.06;100.00
74905;BME280;63465;50.862;6.220;2023-04-01T08:11:13;98032.44;;;9.16;100.00
74905;BME280;63465;50.862;6.220;2023-04-01T08:14:09;98037.50;;;9.19;100.00
74905;BME280;63465;50.862;6.220;2023-04-01T08:17:02;98034.31;;;9.27;100.00
74905;BME280;63465;50.862;6.220;2023-04-01T08:19:50;98044.69;;;9.30;100.00
74905;BME280;63465;50.862;6.220;2023-04-01T08:22:26;98038.13;;;9.36;100.00
74905;BME280;63465;50.862;6.220;2023-04-01T08:24:58;98045.97;;;9.37;100.00
74905;BME280;63465;50.862;6.220;2023-04-01T08:27:33;98053.56;;;9.29;100.00
74905;BME280;63465;50.862;6.220;2023-04-01T08:30:06;98055.16;;;9.32;100.00
74905;BME280;63465;50.862;6.220;2023-04-01T08:32:43;98055.06;;;9.33;100.00
74905;BME280;63465;50.862;6.220;2023-04-01T08:35:18;98064.91;;;9.31;100.00
74905;BME280;63465;50.862;6.220;2023-04-01T08:37:50;98052.16;;;9.49;100.00
74905;BME280;63465;50.862;6.220;2023-04-01T08:49:48;98078.41;;;9.52;100.00
74905;BME280;63465;50.862;6.220;2023-04-01T08:52:42;98083.97;;;9.36;100.00
74905;BME280;63465;50.862;6.220;2023-04-01T08:55:51;98083.38;;;9.57;100.00
74905;BME280;63465;50.862;6.220;2023-04-01T08:58:42;98086.16;;;9.42;100.00
74905;BME280;63465;50.862;6.220;2023-04-01T09:01:53;98095.06;;;9.54;100.00
74905;BME280;63465;50.862;6.220;2023-04-01T09:05:07;98091.34;;;9.44;100.00
74905;BME280;63465;50.862;6.220;2023-04-01T09:07:50;98103.31;;;9.50;100.00
74905;BME280;63465;50.862;6.220;2023-04-01T09:10:49;98104.72;;;9.30;100.00
74905;BME280;63465;50.862;6.220;2023-04-01T09:17:35;98109.13;;;9.55;100.00
74905;BME280;63465;50.862;6.220;2023-04-01T09:20:19;98112.41;;;9.58;100.00
74905;BME280;63465;50.862;6.220;2023-04-01T09:23:15;98114.22;;;9.58;100.00
74905;BME280;63465;50.862;6.220;2023-04-01T09:25:55;98117.69;;;9.71;100.00
74905;BME280;63465;50.862;6.220;2023-04-01T09:28:31;98123.97;;;9.57;100.00
74905;BME280;63465;50.862;6.220;2023-04-01T09:31:24;98120.56;;;9.55;100.00
74905;BME280;63465;50.862;6.220;2023-04-01T09:37:20;98129.75;;;9.75;100.00
74905;BME280;63465;50.862;6.220;2023-04-01T09:40:08;98128.78;;;9.89;100.00
74905;BME280;63465;50.862;6.220;2023-04-01T09:42:42;98130.47;;;9.90;100.00
74905;BME280;63465;50.862;6.220;2023-04-01T09:45:31;98130.28;;;9.80;100.00
74905;BME280;63465;50.862;6.220;2023-04-01T09:48:09;98130.28;;;9.80;100.00
74905;BME280;63465;50.862;6.220;2023-04-01T09:50:44;98138.53;;;9.89;99.86
74905;BME280;63465;50.862;6.220;2023-04-01T09:53:24;98141.00;;;9.79;100.00
74905;BME280;63465;50.862;6.220;2023-04-01T09:56:38;98141.28;;;9.87;100.00
74905;BME280;63465;50.862;6.220;2023-04-01T10:02:54;98148.56;;;10.09;99.87
74905;BME280;63465;50.862;6.220;2023-04-01T10:06:03;98154.69;;;10.10;98.72
74905;BME280;63465;50.862;6.220;2023-04-01T10:09:12;98161.16;;;10.06;98.04
74905;BME280;63465;50.862;6.220;2023-04-01T10:12:23;98160.59;;;10.26;98.67
74905;BME280;63465;50.862;6.220;2023-04-01T10:18:51;98167.06;;;10.22;98.35
74905;BME280;63465;50.862;6.220;2023-04-01T10:24:39;98171.41;;;10.23;99.52
74905;BME280;63465;50.862;6.220;2023-04-01T10:30:58;98184.94;;;10.31;99.14
74905;BME280;63465;50.862;6.220;2023-04-01T10:34:03;98189.16;;;10.47;97.74
74905;BME280;63465;50.862;6.220;2023-04-01T10:36:50;98187.41;;;10.34;97.58
74905;BME280;63465;50.862;6.220;2023-04-01T10:39:38;98184.22;;;10.29;97.57
74905;BME280;63465;50.862;6.220;2023-04-01T10:42:47;98196.97;;;10.37;97.65
74905;BME280;63465;50.862;6.220;2023-04-01T10:46:08;98193.56;;;10.35;98.06
74905;BME280;63465;50.862;6.220;2023-04-01T10:49:01;98192.91;;;10.31;97.77
74905;BME280;63465;50.862;6.220;2023-04-01T10:51:56;98197.69;;;10.39;96.76
74905;BME280;63465;50.862;6.220;2023-04-01T10:55:04;98197.34;;;10.44;97.45
74905;BME280;63465;50.862;6.220;2023-04-01T10:58:16;98201.16;;;10.52;97.97
74905;BME280;63465;50.862;6.220;2023-04-01T11:08:51;98205.44;;;10.29;98.46
74905;BME280;63465;50.862;6.220;2023-04-01T11:18:23;98219.84;;;10.25;98.72
74905;BME280;63465;50.862;6.220;2023-04-01T11:24:18;98219.94;;;10.37;98.88
74905;BME280;63465;50.862;6.220;2023-04-01T11:27:23;98221.44;;;10.28;98.46
74905;BME280;63465;50.862;6.220;2023-04-01T11:30:09;98218.25;;;10.23;98.50
74905;BME280;63465;50.862;6.220;2023-04-01T11:32:45;98227.81;;;10.25;98.77
74905;BME280;63465;50.862;6.220;2023-04-01T11:42:14;98240.13;;;10.26;99.37
74905;BME280;63465;50.862;6.220;2023-04-01T11:45:12;98242.25;;;10.08;99.71
74905;BME280;63465;50.862;6.220;2023-04-01T11:48:02;98236.44;;;10.03;100.00
74905;BME280;63465;50.862;6.220;2023-04-01T11:50:45;98248.41;;;9.96;100.00
74905;BME280;63465;50.862;6.220;2023-04-01T11:53:29;98255.28;;;10.11;100.00
74905;BME280;63465;50.862;6.220;2023-04-01T11:56:09;98254.56;;;10.09;99.21
74905;BME280;63465;50.862;6.220;2023-04-01T11:59:22;98257.47;;;10.30;98.45
74905;BME280;63465;50.862;6.220;2023-04-01T12:01:59;98259.59;;;10.38;98.80
74905;BME280;63465;50.862;6.220;2023-04-01T12:04:54;98262.97;;;10.53;97.89
74905;BME280;63465;50.862;6.220;2023-04-01T12:07:35;98269.34;;;10.50;98.39
74905;BME280;63465;50.862;6.220;2023-04-01T12:10:15;98270.81;;;10.55;97.81
74905;BME280;63465;50.862;6.220;2023-04-01T12:12:51;98269.72;;;10.70;98.03
74905;BME280;63465;50.862;6.220;2023-04-01T12:15:30;98275.09;;;10.44;98.68
74905;BME280;63465;50.862;6.220;2023-04-01T12:18:09;98280.72;;;10.40;98.17
74905;BME280;63465;50.862;6.220;2023-04-01T12:20:48;98278.56;;;10.32;98.36
74905;BME280;63465;50.862;6.220;2023-04-01T12:23:31;98283.97;;;10.56;97.83
74905;BME280;63465;50.862;6.220;2023-04-01T12:26:33;98289.16;;;10.58;98.17
74905;BME280;63465;50.862;6.220;2023-04-01T12:29:21;98287.94;;;10.75;96.67
74905;BME280;63465;50.862;6.220;2023-04-01T12:31:59;98291.47;;;10.75;97.46
74905;BME280;63465;50.862;6.220;2023-04-01T12:35:10;98297.34;;;10.55;98.44
74905;BME280;63465;50.862;6.220;2023-04-01T12:37:48;98293.81;;;10.67;99.48
74905;BME280;63465;50.862;6.220;2023-04-01T12:40:23;98298.41;;;10.52;99.26
74905;BME280;63465;50.862;6.220;2023-04-01T12:43:02;98297.34;;;10.67;99.17
74905;BME280;63465;50.862;6.220;2023-04-01T12:45:31;98298.78;;;10.71;98.07
74905;BME280;63465;50.862;6.220;2023-04-01T12:48:23;98309.28;;;10.73;97.34
74905;BME280;63465;50.862;6.220;2023-04-01T12:51:28;98297.72;;;10.74;97.54
74905;BME280;63465;50.862;6.220;2023-04-01T12:54:19;98303.50;;;10.92;97.09
74905;BME280;63465;50.862;6.220;2023-04-01T12:57:01;98308.50;;;10.84;96.22
74905;BME280;63465;50.862;6.220;2023-04-01T12:59:59;98309.25;;;10.86;96.25
74905;BME280;63465;50.862;6.220;2023-04-01T13:02:44;98312.44;;;11.15;95.77
74905;BME280;63465;50.862;6.220;2023-04-01T13:05:41;98305.88;;;11.08;95.75
74905;BME280;63465;50.862;6.220;2023-04-01T13:08:27;98313.81;;;10.84;97.17
74905;BME280;63465;50.862;6.220;2023-04-01T13:11:14;98323.16;;;10.89;97.53
74905;BME280;63465;50.862;6.220;2023-04-01T13:16:37;98330.63;;;10.71;97.93
74905;BME280;63465;50.862;6.220;2023-04-01T13:19:08;98323.00;;;10.67;98.21
74905;BME280;63465;50.862;6.220;2023-04-01T13:21:46;98327.16;;;10.58;98.43
74905;BME280;63465;50.862;6.220;2023-04-01T13:24:29;98348.16;;;10.48;98.32
74905;BME280;63465;50.862;6.220;2023-04-01T13:27:04;98352.81;;;10.32;98.49
74905;BME280;63465;50.862;6.220;2023-04-01T13:29:36;98346.47;;;10.47;98.34
74905;BME280;63465;50.862;6.220;2023-04-01T13:32:13;98346.78;;;10.56;98.29
74905;BME280;63465;50.862;6.220;2023-04-01T13:34:55;98336.91;;;10.70;98.18
74905;BME280;63465;50.862;6.220;2023-04-01T13:37:36;98345.81;;;10.69;98.67
74905;BME280;63465;50.862;6.220;2023-04-01T13:40:27;98346.84;;;10.80;98.09
74905;BME280;63465;50.862;6.220;2023-04-01T13:43:04;98348.97;;;11.12;97.40
74905;BME280;63465;50.862;6.220;2023-04-01T13:45:42;98348.63;;;10.79;98.01
74905;BME280;63465;50.862;6.220;2023-04-01T13:48:40;98350.72;;;11.00;98.22
74905;BME280;63465;50.862;6.220;2023-04-01T13:51:21;98346.03;;;11.03;97.61
74905;BME280;63465;50.862;6.220;2023-04-01T13:57:02;98359.53;;;11.00;97.38
74905;BME280;63465;50.862;6.220;2023-04-01T14:02:38;98361.06;;;11.16;96.11
74905;BME280;63465;50.862;6.220;2023-04-01T14:05:32;98359.81;;;10.71;96.92
74905;BME280;63465;50.862;6.220;2023-04-01T14:08:14;98363.78;;;11.03;97.42
74905;BME280;63465;50.862;6.220;2023-04-01T14:10:46;98372.72;;;10.89;97.67
74905;BME280;63465;50.862;6.220;2023-04-01T14:13:23;98364.78;;;10.89;96.59
74905;BME280;63465;50.862;6.220;2023-04-01T14:16:13;98370.28;;;10.86;96.80
74905;BME280;63465;50.862;6.220;2023-04-01T14:18:51;98368.38;;;10.88;97.38
74905;BME280;63465;50.862;6.220;2023-04-01T14:21:27;98381.25;;;10.81;97.13
74905;BME280;63465;50.862;6.220;2023-04-01T14:24:13;98379.16;;;10.98;97.34
74905;BME280;63465;50.862;6.220;2023-04-01T14:27:02;98380.81;;;11.12;96.58
74905;BME280;63465;50.862;6.220;2023-04-01T14:29:44;98396.06;;;10.84;96.00
74905;BME280;63465;50.862;6.220;2023-04-01T14:32:25;98394.88;;;11.01;95.78
74905;BME280;63465;50.862;6.220;2023-04-01T14:35:11;98391.22;;;11.15;95.40
74905;BME280;63465;50.862;6.220;2023-04-01T14:37:58;98390.19;;;11.04;95.36
74905;BME280;63465;50.862;6.220;2023-04-01T14:40:36;98397.50;;;11.01;94.29
74905;BME280;63465;50.862;6.220;2023-04-01T14:43:41;98402.09;;;10.99;95.80
74905;BME280;63465;50.862;6.220;2023-04-01T14:49:15;98406.69;;;10.97;96.43
74905;BME280;63465;50.862;6.220;2023-04-01T14:51:43;98421.22;;;10.91;95.51
74905;BME280;63465;50.862;6.220;2023-04-01T14:54:14;98414.81;;;10.57;96.89
74905;BME280;63465;50.862;6.220;2023-04-01T14:56:49;98416.50;;;10.70;97.10
74905;BME280;63465;50.862;6.220;2023-04-01T14:59:26;98413.88;;;10.95;96.09
74905;BME280;63465;50.862;6.220;2023-04-01T15:01:59;98418.50;;;10.80;96.12
74905;BME280;63465;50.862;6.220;2023-04-01T15:04:43;98413.38;;;10.89;95.86
74905;BME280;63465;50.862;6.220;2023-04-01T15:07:45;98415.47;;;10.97;95.91